sensor_id;sensor_type;location;lat;lon;timestamp;temperature;humidity
23721;DHT22;42950;52.134;5.578;2023-03-07T00:00:43;5.20;99.90
23721;DHT22;42950;52.134;5.578;2023-03-07T00:03:14;5.20;99.90
23721;DHT22;42950;52.134;5.578;2023-03-07T00:05:40;5.30;99.90
23721;DHT22;42950;52.134;5.578;2023-03-07T00:08:08;5.30;99.90
23721;DHT22;42950;52.134;5.578;2023-03-07T00:10:33;5.30;99.90
23721;DHT22;42950;52.134;5.578;2023-03-07T00:12:59;5.40;99.90
23721;DHT22;42950;52.134;5.578;2023-03-07T00:15:25;5.40;99.90
23721;DHT22;42950;52.134;5.578;2023-03-07T00:17:51;5.40;99.90
23721;DHT22;42950;52.134;5.578;2023-03-07T00:20:18;5.40;99.90
23721;DHT22;42950;52.134;5.578;2023-03-07T00:22:43;5.50;99.90
23721;DHT22;42950;52.134;5.578;2023-03-07T00:25:12;5.40;99.90
23721;DHT22;42950;52.134;5.578;2023-03-07T00:27:40;5.40;99.90
23721;DHT22;42950;52.134;5.578;2023-03-07T00:30:06;5.30;99.90
23721;DHT22;42950;52.134;5.578;2023-03-07T00:32:32;5.30;99.90
23721;DHT22;42950;52.134;5.578;2023-03-07T00:34:58;5.30;99.90
23721;DHT22;42950;52.134;5.578;2023-03-07T00:37:25;5.30;99.90
23721;DHT22;42950;52.134;5.578;2023-03-07T00:39:50;5.20;99.90
23721;DHT22;42950;52.134;5.578;2023-03-07T00:42:22;5.20;99.90
23721;DHT22;42950;52.134;5.578;2023-03-07T00:44:47;5.20;99.90
23721;DHT22;42950;52.134;5.578;2023-03-07T00:47:13;5.20;99.90
23721;DHT22;42950;52.134;5.578;2023-03-07T00:49:39;5.20;99.90
23721;DHT22;42950;52.134;5.578;2023-03-07T00:52:04;5.20;99.90
23721;DHT22;42950;52.134;5.578;2023-03-07T00:54:30;5.20;99.90
23721;DHT22;42950;52.134;5.578;2023-03-07T00:56:56;5.20;99.90
23721;DHT22;42950;52.134;5.578;2023-03-07T00:59:21;5.20;99.90
23721;DHT22;42950;52.134;5.578;2023-03-07T01:01:47;5.20;99.90
23721;DHT22;42950;52.134;5.578;2023-03-07T01:04:13;5.20;99.90
23721;DHT22;42950;52.134;5.578;2023-03-07T01:06:39;5.20;99.90
23721;DHT22;42950;52.134;5.578;2023-03-07T01:09:06;5.20;99.90
23721;DHT22;42950;52.134;5.578;2023-03-07T01:11:33;5.20;99.90
23721;DHT22;42950;52.134;5.578;2023-03-07T01:14:02;5.30;99.90
23721;DHT22;42950;52.134;5.578;2023-03-07T01:16:31;5.30;99.90
23721;DHT22;42950;52.134;5.578;2023-03-07T01:19:00;5.20;99.90
23721;DHT22;42950;52.134;5.578;2023-03-07T01:21:29;5.20;99.90
23721;DHT22;42950;52.134;5.578;2023-03-07T01:23:55;5.20;99.90
23721;DHT22;42950;52.134;5.578;2023-03-07T01:26:23;5.30;99.90
23721;DHT22;42950;52.134;5.578;2023-03-07T01:28:51;5.20;99.90
23721;DHT22;42950;52.134;5.578;2023-03-07T01:31:17;5.20;99.90
23721;DHT22;42950;52.134;5.578;2023-03-07T01:33:45;5.20;99.90
23721;DHT22;42950;52.134;5.578;2023-03-07T01:36:22;5.20;99.90
23721;DHT22;42950;52.134;5.578;2023-03-07T01:38:53;5.20;99.90
23721;DHT22;42950;52.134;5.578;2023-03-07T01:41:20;5.20;99.90
23721;DHT22;42950;52.134;5.578;2023-03-07T01:43:47;5.20;99.90
23721;DHT22;42950;52.134;5.578;2023-03-07T01:49:03;5.10;99.90
23721;DHT22;42950;52.134;5.578;2023-03-07T01:51:33;5.00;99.90
23721;DHT22;42950;52.134;5.578;2023-03-07T01:54:00;5.10;99.90
23721;DHT22;42950;52.134;5.578;2023-03-07T01:56:26;5.10;99.90
23721;DHT22;42950;52.134;5.578;2023-03-07T01:58:52;5.10;99.90
23721;DHT22;42950;52.134;5.578;2023-03-07T02:01:19;5.10;99.90
23721;DHT22;42950;52.134;5.578;2023-03-07T02:06:16;5.10;99.90
23721;DHT22;42950;52.134;5.578;2023-03-07T02:08:44;5.10;99.90
23721;DHT22;42950;52.134;5.578;2023-03-07T02:11:11;5.10;99.90
23721;DHT22;42950;52.134;5.578;2023-03-07T02:13:37;5.00;99.90
23721;DHT22;42950;52.134;5.578;2023-03-07T02:16:03;5.10;99.90
23721;DHT22;42950;52.134;5.578;2023-03-07T02:18:33;5.10;99.90
23721;DHT22;42950;52.134;5.578;2023-03-07T02:28:50;5.10;99.90
23721;DHT22;42950;52.134;5.578;2023-03-07T02:31:16;5.00;99.90
23721;DHT22;42950;52.134;5.578;2023-03-07T02:33:44;5.10;99.90
23721;DHT22;42950;52.134;5.578;2023-03-07T02:36:16;5.00;99.90
23721;DHT22;42950;52.134;5.578;2023-03-07T02:38:44;5.00;99.90
23721;DHT22;42950;52.134;5.578;2023-03-07T02:41:11;5.00;99.90
23721;DHT22;42950;52.134;5.578;2023-03-07T02:43:37;5.00;99.90
23721;DHT22;42950;52.134;5.578;2023-03-07T02:46:04;5.00;99.90
23721;DHT22;42950;52.134;5.578;2023-03-07T02:48:30;5.00;99.90
23721;DHT22;42950;52.134;5.578;2023-03-07T02:50:55;5.00;99.90
23721;DHT22;42950;52.134;5.578;2023-03-07T02:53:21;5.00;99.90
23721;DHT22;42950;52.134;5.578;2023-03-07T02:55:48;5.10;99.90
23721;DHT22;42950;52.134;5.578;2023-03-07T02:58:14;5.10;99.90
23721;DHT22;42950;52.134;5.578;2023-03-07T03:00:39;5.20;99.90
23721;DHT22;42950;52.134;5.578;2023-03-07T03:03:05;5.10;99.90
23721;DHT22;42950;52.134;5.578;2023-03-07T03:05:30;5.10;99.90
23721;DHT22;42950;52.134;5.578;2023-03-07T03:07:56;5.10;99.90
23721;DHT22;42950;52.134;5.578;2023-03-07T03:10:22;5.00;99.90
23721;DHT22;42950;52.134;5.578;2023-03-07T03:12:48;5.10;99.90
23721;DHT22;42950;52.134;5.578;2023-03-07T03:15:18;5.00;99.90
23721;DHT22;42950;52.134;5.578;2023-03-07T03:17:45;5.00;99.90
23721;DHT22;42950;52.134;5.578;2023-03-07T03:20:11;5.00;99.90
23721;DHT22;42950;52.134;5.578;2023-03-07T03:22:40;4.90;99.90
23721;DHT22;42950;52.134;5.578;2023-03-07T03:25:10;4.90;99.90
23721;DHT22;42950;52.134;5.578;2023-03-07T03:27:36;4.90;99.90
23721;DHT22;42950;52.134;5.578;2023-03-07T03:30:04;5.00;99.90
23721;DHT22;42950;52.134;5.578;2023-03-07T03:32:30;5.00;99.90
23721;DHT22;42950;52.134;5.578;2023-03-07T03:34:57;5.00;99.90
23721;DHT22;42950;52.134;5.578;2023-03-07T03:37:22;4.90;99.90
23721;DHT22;42950;52.134;5.578;2023-03-07T03:39:48;5.00;99.90
23721;DHT22;42950;52.134;5.578;2023-03-07T03:42:14;4.90;99.90
23721;DHT22;42950;52.134;5.578;2023-03-07T03:44:39;4.90;99.90
23721;DHT22;42950;52.134;5.578;2023-03-07T03:47:05;5.00;99.90
23721;DHT22;42950;52.134;5.578;2023-03-07T03:49:31;5.00;99.90
23721;DHT22;42950;52.134;5.578;2023-03-07T03:51:57;5.00;99.90
23721;DHT22;42950;52.134;5.578;2023-03-07T03:54:23;5.00;99.90
23721;DHT22;42950;52.134;5.578;2023-03-07T03:56:48;5.00;99.90
23721;DHT22;42950;52.134;5.578;2023-03-07T03:59:14;5.00;99.90
23721;DHT22;42950;52.134;5.578;2023-03-07T04:01:39;5.00;99.90
23721;DHT22;42950;52.134;5.578;2023-03-07T04:04:05;4.90;99.90
23721;DHT22;42950;52.134;5.578;2023-03-07T04:06:33;5.00;99.90
23721;DHT22;42950;52.134;5.578;2023-03-07T04:09:00;5.00;99.90
23721;DHT22;42950;52.134;5.578;2023-03-07T04:11:27;5.00;99.90
23721;DHT22;42950;52.134;5.578;2023-03-07T04:13:53;5.00;99.90
23721;DHT22;42950;52.134;5.578;2023-03-07T04:16:19;5.00;99.90
23721;DHT22;42950;52.134;5.578;2023-03-07T04:18:47;5.00;99.90
23721;DHT22;42950;52.134;5.578;2023-03-07T04:21:14;5.00;99.90
23721;DHT22;42950;52.134;5.578;2023-03-07T04:23:40;5.00;99.90
23721;DHT22;42950;52.134;5.578;2023-03-07T04:26:07;5.00;99.90
23721;DHT22;42950;52.134;5.578;2023-03-07T04:28:36;5.10;99.90
23721;DHT22;42950;52.134;5.578;2023-03-07T04:31:13;5.10;99.90
23721;DHT22;42950;52.134;5.578;2023-03-07T04:33:39;5.00;99.90
23721;DHT22;42950;52.134;5.578;2023-03-07T04:36:05;5.00;99.90
23721;DHT22;42950;52.134;5.578;2023-03-07T04:38:31;4.90;99.90
23721;DHT22;42950;52.134;5.578;2023-03-07T04:40:57;4.90;99.90
23721;DHT22;42950;52.134;5.578;2023-03-07T04:43:23;5.00;99.90
23721;DHT22;42950;52.134;5.578;2023-03-07T04:45:49;5.00;99.90
23721;DHT22;42950;52.134;5.578;2023-03-07T04:48:16;5.00;99.90
23721;DHT22;42950;52.134;5.578;2023-03-07T04:50:42;5.00;99.90
23721;DHT22;42950;52.134;5.578;2023-03-07T04:53:09;4.90;99.90
23721;DHT22;42950;52.134;5.578;2023-03-07T04:55:34;4.90;99.90
23721;DHT22;42950;52.134;5.578;2023-03-07T04:58:00;4.90;99.90
23721;DHT22;42950;52.134;5.578;2023-03-07T05:00:26;4.90;99.90
23721;DHT22;42950;52.134;5.578;2023-03-07T05:02:52;4.80;99.90
23721;DHT22;42950;52.134;5.578;2023-03-07T05:05:20;4.80;99.90
23721;DHT22;42950;52.134;5.578;2023-03-07T05:07:47;4.70;99.90
23721;DHT22;42950;52.134;5.578;2023-03-07T05:10:13;4.60;99.90
23721;DHT22;42950;52.134;5.578;2023-03-07T05:12:38;4.60;99.90
23721;DHT22;42950;52.134;5.578;2023-03-07T05:15:05;4.70;99.90
23721;DHT22;42950;52.134;5.578;2023-03-07T05:17:30;4.70;99.90
23721;DHT22;42950;52.134;5.578;2023-03-07T05:19:57;4.70;99.90
23721;DHT22;42950;52.134;5.578;2023-03-07T05:22:23;4.70;99.90
23721;DHT22;42950;52.134;5.578;2023-03-07T05:24:50;4.60;99.90
23721;DHT22;42950;52.134;5.578;2023-03-07T05:27:16;4.60;99.90
23721;DHT22;42950;52.134;5.578;2023-03-07T05:29:41;4.60;99.90
23721;DHT22;42950;52.134;5.578;2023-03-07T05:32:07;4.60;99.90
23721;DHT22;42950;52.134;5.578;2023-03-07T05:34:35;4.50;99.90
23721;DHT22;42950;52.134;5.578;2023-03-07T05:37:03;4.50;99.90
23721;DHT22;42950;52.134;5.578;2023-03-07T05:39:29;4.40;99.90
23721;DHT22;42950;52.134;5.578;2023-03-07T05:41:54;4.30;99.90
23721;DHT22;42950;52.134;5.578;2023-03-07T05:44:20;4.20;99.90
23721;DHT22;42950;52.134;5.578;2023-03-07T05:46:47;4.20;99.90
23721;DHT22;42950;52.134;5.578;2023-03-07T05:49:12;4.00;99.90
23721;DHT22;42950;52.134;5.578;2023-03-07T05:51:38;3.90;99.90
23721;DHT22;42950;52.134;5.578;2023-03-07T05:54:04;3.90;99.90
23721;DHT22;42950;52.134;5.578;2023-03-07T05:56:29;3.80;99.90
23721;DHT22;42950;52.134;5.578;2023-03-07T05:58:55;3.60;99.90
23721;DHT22;42950;52.134;5.578;2023-03-07T06:01:21;3.50;99.90
23721;DHT22;42950;52.134;5.578;2023-03-07T06:03:47;3.50;99.90
23721;DHT22;42950;52.134;5.578;2023-03-07T06:06:13;3.50;99.90
23721;DHT22;42950;52.134;5.578;2023-03-07T06:08:39;3.60;99.90
23721;DHT22;42950;52.134;5.578;2023-03-07T06:11:04;3.50;99.90
23721;DHT22;42950;52.134;5.578;2023-03-07T06:13:30;3.50;99.90
23721;DHT22;42950;52.134;5.578;2023-03-07T06:15:56;3.50;99.90
23721;DHT22;42950;52.134;5.578;2023-03-07T06:18:23;3.50;99.90
23721;DHT22;42950;52.134;5.578;2023-03-07T06:21:00;3.50;99.90
23721;DHT22;42950;52.134;5.578;2023-03-07T06:23:28;3.40;99.90
23721;DHT22;42950;52.134;5.578;2023-03-07T06:25:54;3.40;99.90
23721;DHT22;42950;52.134;5.578;2023-03-07T06:28:20;3.40;99.90
23721;DHT22;42950;52.134;5.578;2023-03-07T06:30:46;3.30;99.90
23721;DHT22;42950;52.134;5.578;2023-03-07T06:33:12;3.30;99.90
23721;DHT22;42950;52.134;5.578;2023-03-07T06:35:39;3.10;99.90
23721;DHT22;42950;52.134;5.578;2023-03-07T06:38:05;3.00;99.90
23721;DHT22;42950;52.134;5.578;2023-03-07T06:40:30;3.00;99.90
23721;DHT22;42950;52.134;5.578;2023-03-07T06:42:56;2.90;99.90
23721;DHT22;42950;52.134;5.578;2023-03-07T06:45:21;2.90;99.90
23721;DHT22;42950;52.134;5.578;2023-03-07T06:47:47;2.90;99.90
23721;DHT22;42950;52.134;5.578;2023-03-07T06:50:12;2.90;99.90
23721;DHT22;42950;52.134;5.578;2023-03-07T06:52:38;2.80;99.90
23721;DHT22;42950;52.134;5.578;2023-03-07T06:55:04;2.70;99.90
23721;DHT22;42950;52.134;5.578;2023-03-07T06:57:30;2.70;99.90
23721;DHT22;42950;52.134;5.578;2023-03-07T06:59:57;2.60;99.90
23721;DHT22;42950;52.134;5.578;2023-03-07T07:02:23;2.60;99.90
23721;DHT22;42950;52.134;5.578;2023-03-07T07:04:48;2.60;99.90
23721;DHT22;42950;52.134;5.578;2023-03-07T07:07:14;2.60;99.90
23721;DHT22;42950;52.134;5.578;2023-03-07T07:09:39;2.60;99.90
23721;DHT22;42950;52.134;5.578;2023-03-07T07:12:05;2.60;99.90
23721;DHT22;42950;52.134;5.578;2023-03-07T07:14:31;2.50;99.90
23721;DHT22;42950;52.134;5.578;2023-03-07T07:17:00;2.50;99.90
23721;DHT22;42950;52.134;5.578;2023-03-07T07:19:25;2.50;99.90
23721;DHT22;42950;52.134;5.578;2023-03-07T07:21:52;2.60;99.90
23721;DHT22;42950;52.134;5.578;2023-03-07T07:24:18;2.60;99.90
23721;DHT22;42950;52.134;5.578;2023-03-07T07:26:43;2.60;99.90
23721;DHT22;42950;52.134;5.578;2023-03-07T07:29:09;2.60;99.90
23721;DHT22;42950;52.134;5.578;2023-03-07T07:31:35;2.60;99.90
23721;DHT22;42950;52.134;5.578;2023-03-07T07:34:01;2.50;99.90
23721;DHT22;42950;52.134;5.578;2023-03-07T07:36:27;2.60;99.90
23721;DHT22;42950;52.134;5.578;2023-03-07T07:38:53;2.60;99.90
23721;DHT22;42950;52.134;5.578;2023-03-07T07:41:18;2.60;99.90
23721;DHT22;42950;52.134;5.578;2023-03-07T07:43:44;2.60;99.90
23721;DHT22;42950;52.134;5.578;2023-03-07T07:46:11;2.80;99.90
23721;DHT22;42950;52.134;5.578;2023-03-07T07:48:37;2.80;99.90
23721;DHT22;42950;52.134;5.578;2023-03-07T07:51:03;2.80;99.90
23721;DHT22;42950;52.134;5.578;2023-03-07T07:53:29;2.70;99.90
23721;DHT22;42950;52.134;5.578;2023-03-07T07:55:55;2.70;99.90
23721;DHT22;42950;52.134;5.578;2023-03-07T07:58:21;2.70;99.90
23721;DHT22;42950;52.134;5.578;2023-03-07T08:00:46;2.70;99.90
23721;DHT22;42950;52.134;5.578;2023-03-07T08:03:12;2.80;99.90
23721;DHT22;42950;52.134;5.578;2023-03-07T08:05:43;2.80;99.90
23721;DHT22;42950;52.134;5.578;2023-03-07T08:08:09;2.90;99.90
23721;DHT22;42950;52.134;5.578;2023-03-07T08:10:34;3.00;99.90
23721;DHT22;42950;52.134;5.578;2023-03-07T08:13:00;3.10;99.90
23721;DHT22;42950;52.134;5.578;2023-03-07T08:15:26;3.00;99.90
23721;DHT22;42950;52.134;5.578;2023-03-07T08:17:51;2.90;99.90
23721;DHT22;42950;52.134;5.578;2023-03-07T08:20:18;2.90;99.90
23721;DHT22;42950;52.134;5.578;2023-03-07T08:22:47;2.90;99.90
23721;DHT22;42950;52.134;5.578;2023-03-07T08:25:18;3.00;99.90
23721;DHT22;42950;52.134;5.578;2023-03-07T08:27:45;3.10;99.90
23721;DHT22;42950;52.134;5.578;2023-03-07T08:30:12;3.00;99.90
23721;DHT22;42950;52.134;5.578;2023-03-07T08:32:37;3.00;99.90
23721;DHT22;42950;52.134;5.578;2023-03-07T08:35:03;3.00;99.90
23721;DHT22;42950;52.134;5.578;2023-03-07T08:37:29;2.90;99.90
23721;DHT22;42950;52.134;5.578;2023-03-07T08:39:54;2.80;99.90
23721;DHT22;42950;52.134;5.578;2023-03-07T08:42:20;2.80;99.90
23721;DHT22;42950;52.134;5.578;2023-03-07T08:44:45;2.80;99.90
23721;DHT22;42950;52.134;5.578;2023-03-07T08:47:11;2.90;99.90
23721;DHT22;42950;52.134;5.578;2023-03-07T08:49:38;2.90;99.90
23721;DHT22;42950;52.134;5.578;2023-03-07T08:52:04;3.00;99.90
23721;DHT22;42950;52.134;5.578;2023-03-07T08:54:30;3.00;99.90
23721;DHT22;42950;52.134;5.578;2023-03-07T08:56:57;3.00;99.90
23721;DHT22;42950;52.134;5.578;2023-03-07T08:59:23;3.00;99.90
23721;DHT22;42950;52.134;5.578;2023-03-07T09:01:48;3.00;99.90
23721;DHT22;42950;52.134;5.578;2023-03-07T09:04:14;3.00;99.90
23721;DHT22;42950;52.134;5.578;2023-03-07T09:06:39;3.00;99.90
23721;DHT22;42950;52.134;5.578;2023-03-07T09:09:05;3.00;99.90
23721;DHT22;42950;52.134;5.578;2023-03-07T09:11:30;3.00;99.90
23721;DHT22;42950;52.134;5.578;2023-03-07T09:13:56;3.00;99.90
23721;DHT22;42950;52.134;5.578;2023-03-07T09:16:22;3.10;99.90
23721;DHT22;42950;52.134;5.578;2023-03-07T09:18:48;3.10;99.90
23721;DHT22;42950;52.134;5.578;2023-03-07T09:21:13;3.20;99.90
23721;DHT22;42950;52.134;5.578;2023-03-07T09:23:40;3.30;99.90
23721;DHT22;42950;52.134;5.578;2023-03-07T09:26:06;3.30;99.90
23721;DHT22;42950;52.134;5.578;2023-03-07T09:28:32;3.40;99.90
23721;DHT22;42950;52.134;5.578;2023-03-07T09:30:57;3.40;99.90
23721;DHT22;42950;52.134;5.578;2023-03-07T09:33:23;3.50;99.90
23721;DHT22;42950;52.134;5.578;2023-03-07T09:35:48;3.50;99.90
23721;DHT22;42950;52.134;5.578;2023-03-07T09:38:14;3.40;99.90
23721;DHT22;42950;52.134;5.578;2023-03-07T09:40:40;3.40;99.90
23721;DHT22;42950;52.134;5.578;2023-03-07T09:43:20;3.40;99.90
23721;DHT22;42950;52.134;5.578;2023-03-07T09:46:19;3.50;99.90
23721;DHT22;42950;52.134;5.578;2023-03-07T09:51:38;3.50;99.90
23721;DHT22;42950;52.134;5.578;2023-03-07T09:54:16;3.60;99.90
23721;DHT22;42950;52.134;5.578;2023-03-07T09:56:54;3.60;99.90
23721;DHT22;42950;52.134;5.578;2023-03-07T10:02:00;3.60;99.90
23721;DHT22;42950;52.134;5.578;2023-03-07T10:07:25;3.70;99.90
23721;DHT22;42950;52.134;5.578;2023-03-07T10:09:56;3.80;99.90
23721;DHT22;42950;52.134;5.578;2023-03-07T10:12:52;3.80;99.90
23721;DHT22;42950;52.134;5.578;2023-03-07T10:23:58;4.10;99.90
23721;DHT22;42950;52.134;5.578;2023-03-07T10:26:31;4.10;99.90
23721;DHT22;42950;52.134;5.578;2023-03-07T10:29:01;4.00;99.90
23721;DHT22;42950;52.134;5.578;2023-03-07T10:31:38;4.00;99.90
23721;DHT22;42950;52.134;5.578;2023-03-07T10:34:31;4.00;99.90
23721;DHT22;42950;52.134;5.578;2023-03-07T10:37:01;4.10;99.90
23721;DHT22;42950;52.134;5.578;2023-03-07T10:39:51;4.20;99.90
23721;DHT22;42950;52.134;5.578;2023-03-07T10:42:19;4.20;99.90
23721;DHT22;42950;52.134;5.578;2023-03-07T10:44:45;4.20;99.90
23721;DHT22;42950;52.134;5.578;2023-03-07T10:47:25;4.30;99.90
23721;DHT22;42950;52.134;5.578;2023-03-07T10:49:55;4.30;99.90
23721;DHT22;42950;52.134;5.578;2023-03-07T10:55:42;4.00;99.90
23721;DHT22;42950;52.134;5.578;2023-03-07T10:58:25;4.00;99.90
23721;DHT22;42950;52.134;5.578;2023-03-07T11:04:06;3.80;99.90
23721;DHT22;42950;52.134;5.578;2023-03-07T11:08:57;3.90;99.90
23721;DHT22;42950;52.134;5.578;2023-03-07T11:11:31;4.10;99.90
23721;DHT22;42950;52.134;5.578;2023-03-07T11:14:08;4.20;99.90
23721;DHT22;42950;52.134;5.578;2023-03-07T11:16:51;4.40;99.90
23721;DHT22;42950;52.134;5.578;2023-03-07T11:19:37;4.40;99.90
23721;DHT22;42950;52.134;5.578;2023-03-07T11:22:26;4.40;99.90
23721;DHT22;42950;52.134;5.578;2023-03-07T11:25:13;4.60;99.90
23721;DHT22;42950;52.134;5.578;2023-03-07T11:27:52;4.70;99.90
23721;DHT22;42950;52.134;5.578;2023-03-07T11:33:01;4.40;99.90
23721;DHT22;42950;52.134;5.578;2023-03-07T11:38:19;3.80;99.90
23721;DHT22;42950;52.134;5.578;2023-03-07T11:43:28;3.10;99.90
23721;DHT22;42950;52.134;5.578;2023-03-07T11:46:11;3.00;99.90
23721;DHT22;42950;52.134;5.578;2023-03-07T11:48:50;3.10;99.90
23721;DHT22;42950;52.134;5.578;2023-03-07T11:51:53;3.00;99.90
23721;DHT22;42950;52.134;5.578;2023-03-07T12:05:44;3.20;99.90
23721;DHT22;42950;52.134;5.578;2023-03-07T12:13:47;3.30;99.90
23721;DHT22;42950;52.134;5.578;2023-03-07T12:24:25;3.50;99.90
23721;DHT22;42950;52.134;5.578;2023-03-07T12:27:10;3.50;99.90
23721;DHT22;42950;52.134;5.578;2023-03-07T12:29:45;3.60;99.90
23721;DHT22;42950;52.134;5.578;2023-03-07T12:32:17;3.40;99.90
23721;DHT22;42950;52.134;5.578;2023-03-07T12:39:58;3.60;99.90
23721;DHT22;42950;52.134;5.578;2023-03-07T12:42:39;3.80;99.90
23721;DHT22;42950;52.134;5.578;2023-03-07T13:00:50;4.00;99.90
23721;DHT22;42950;52.134;5.578;2023-03-07T13:06:26;3.90;99.90
23721;DHT22;42950;52.134;5.578;2023-03-07T13:08:58;4.00;99.90
23721;DHT22;42950;52.134;5.578;2023-03-07T13:11:26;4.00;99.90
23721;DHT22;42950;52.134;5.578;2023-03-07T13:14:00;3.90;99.90
23721;DHT22;42950;52.134;5.578;2023-03-07T13:16:33;4.10;99.90
23721;DHT22;42950;52.134;5.578;2023-03-07T13:22:02;4.10;99.90
23721;DHT22;42950;52.134;5.578;2023-03-07T13:24:32;4.00;99.90
23721;DHT22;42950;52.134;5.578;2023-03-07T13:27:00;4.10;99.90
23721;DHT22;42950;52.134;5.578;2023-03-07T13:42:55;4.50;99.90
23721;DHT22;42950;52.134;5.578;2023-03-07T13:48:58;4.40;99.90
23721;DHT22;42950;52.134;5.578;2023-03-07T13:51:05;4.30;99.90
23721;DHT22;42950;52.134;5.578;2023-03-07T13:53:45;4.40;99.90
23721;DHT22;42950;52.134;5.578;2023-03-07T13:59:10;4.10;99.90
23721;DHT22;42950;52.134;5.578;2023-03-07T14:04:28;4.00;99.90
23721;DHT22;42950;52.134;5.578;2023-03-07T14:07:09;4.00;99.90
23721;DHT22;42950;52.134;5.578;2023-03-07T14:09:56;3.90;99.90
23721;DHT22;42950;52.134;5.578;2023-03-07T14:12:35;4.00;99.90
23721;DHT22;42950;52.134;5.578;2023-03-07T14:15:23;4.00;99.90
23721;DHT22;42950;52.134;5.578;2023-03-07T14:21:00;4.10;99.90
23721;DHT22;42950;52.134;5.578;2023-03-07T14:31:41;4.10;99.90
23721;DHT22;42950;52.134;5.578;2023-03-07T14:36:41;4.00;99.90
23721;DHT22;42950;52.134;5.578;2023-03-07T14:39:11;3.90;99.90
23721;DHT22;42950;52.134;5.578;2023-03-07T14:44:32;4.00;99.90
23721;DHT22;42950;52.134;5.578;2023-03-07T14:50:15;4.00;99.90
23721;DHT22;42950;52.134;5.578;2023-03-07T14:52:42;4.00;99.90
23721;DHT22;42950;52.134;5.578;2023-03-07T14:55:18;4.10;99.90
23721;DHT22;42950;52.134;5.578;2023-03-07T14:57:45;4.10;99.90
23721;DHT22;42950;52.134;5.578;2023-03-07T15:02:56;4.00;99.90
23721;DHT22;42950;52.134;5.578;2023-03-07T15:07:50;4.10;99.90
23721;DHT22;42950;52.134;5.578;2023-03-07T15:10:20;4.10;99.90
23721;DHT22;42950;52.134;5.578;2023-03-07T15:12:50;4.10;99.90
23721;DHT22;42950;52.134;5.578;2023-03-07T15:15:24;4.00;99.90
23721;DHT22;42950;52.134;5.578;2023-03-07T15:17:53;3.90;99.90
23721;DHT22;42950;52.134;5.578;2023-03-07T15:20:22;4.00;99.90
23721;DHT22;42950;52.134;5.578;2023-03-07T15:22:49;4.10;99.90
23721;DHT22;42950;52.134;5.578;2023-03-07T15:25:21;4.10;99.90
23721;DHT22;42950;52.134;5.578;2023-03-07T15:27:58;4.10;99.90
23721;DHT22;42950;52.134;5.578;2023-03-07T15:30:33;4.10;99.90
23721;DHT22;42950;52.134;5.578;2023-03-07T15:35:40;4.10;99.90
23721;DHT22;42950;52.134;5.578;2023-03-07T15:38:20;4.10;99.90
23721;DHT22;42950;52.134;5.578;2023-03-07T15:40:47;4.10;99.90
23721;DHT22;42950;52.134;5.578;2023-03-07T15:46:14;4.30;99.90
23721;DHT22;42950;52.134;5.578;2023-03-07T15:48:50;4.40;99.90
23721;DHT22;42950;52.134;5.578;2023-03-07T15:51:21;4.40;99.90
23721;DHT22;42950;52.134;5.578;2023-03-07T15:53:59;4.40;99.90
23721;DHT22;42950;52.134;5.578;2023-03-07T15:56:31;4.40;99.90
23721;DHT22;42950;52.134;5.578;2023-03-07T15:59:20;4.30;99.90
23721;DHT22;42950;52.134;5.578;2023-03-07T16:01:46;4.20;99.90
23721;DHT22;42950;52.134;5.578;2023-03-07T16:04:34;4.30;99.90
23721;DHT22;42950;52.134;5.578;2023-03-07T16:07:01;4.20;99.90
23721;DHT22;42950;52.134;5.578;2023-03-07T16:09:26;4.10;99.90
23721;DHT22;42950;52.134;5.578;2023-03-07T16:11:52;4.00;99.90
23721;DHT22;42950;52.134;5.578;2023-03-07T16:14:22;4.10;99.90
23721;DHT22;42950;52.134;5.578;2023-03-07T16:16:50;4.20;99.90
23721;DHT22;42950;52.134;5.578;2023-03-07T16:19:16;4.00;99.90
23721;DHT22;42950;52.134;5.578;2023-03-07T16:21:42;4.10;99.90
23721;DHT22;42950;52.134;5.578;2023-03-07T16:24:07;4.10;99.90
23721;DHT22;42950;52.134;5.578;2023-03-07T16:26:33;4.10;99.90
23721;DHT22;42950;52.134;5.578;2023-03-07T16:28:59;3.90;99.90
23721;DHT22;42950;52.134;5.578;2023-03-07T16:31:25;3.90;99.90
23721;DHT22;42950;52.134;5.578;2023-03-07T16:33:51;3.90;99.90
23721;DHT22;42950;52.134;5.578;2023-03-07T16:36:17;3.90;99.90
23721;DHT22;42950;52.134;5.578;2023-03-07T16:38:45;3.90;99.90
23721;DHT22;42950;52.134;5.578;2023-03-07T16:41:16;4.00;99.90
23721;DHT22;42950;52.134;5.578;2023-03-07T16:43:43;3.90;99.90
23721;DHT22;42950;52.134;5.578;2023-03-07T16:46:15;3.90;99.90
23721;DHT22;42950;52.134;5.578;2023-03-07T16:48:42;3.80;99.90
23721;DHT22;42950;52.134;5.578;2023-03-07T16:51:16;3.80;99.90
23721;DHT22;42950;52.134;5.578;2023-03-07T16:53:43;3.80;99.90
23721;DHT22;42950;52.134;5.578;2023-03-07T16:56:22;3.80;99.90
23721;DHT22;42950;52.134;5.578;2023-03-07T16:58:48;3.80;99.90
23721;DHT22;42950;52.134;5.578;2023-03-07T17:01:14;3.70;99.90
23721;DHT22;42950;52.134;5.578;2023-03-07T17:03:40;3.70;99.90
23721;DHT22;42950;52.134;5.578;2023-03-07T17:06:09;3.70;99.90
23721;DHT22;42950;52.134;5.578;2023-03-07T17:08:36;3.60;99.90
23721;DHT22;42950;52.134;5.578;2023-03-07T17:11:02;3.60;99.90
23721;DHT22;42950;52.134;5.578;2023-03-07T17:13:27;3.60;99.90
23721;DHT22;42950;52.134;5.578;2023-03-07T17:15:53;3.60;99.90
23721;DHT22;42950;52.134;5.578;2023-03-07T17:18:18;3.60;99.90
23721;DHT22;42950;52.134;5.578;2023-03-07T17:20:46;3.60;99.90
23721;DHT22;42950;52.134;5.578;2023-03-07T17:23:12;3.50;99.90
23721;DHT22;42950;52.134;5.578;2023-03-07T17:25:37;3.50;99.90
23721;DHT22;42950;52.134;5.578;2023-03-07T17:28:06;3.40;99.90
23721;DHT22;42950;52.134;5.578;2023-03-07T17:30:32;3.40;99.90
23721;DHT22;42950;52.134;5.578;2023-03-07T17:32:58;3.40;99.90
23721;DHT22;42950;52.134;5.578;2023-03-07T17:35:25;3.40;99.90
23721;DHT22;42950;52.134;5.578;2023-03-07T17:37:52;3.30;99.90
23721;DHT22;42950;52.134;5.578;2023-03-07T17:40:21;3.30;99.90
23721;DHT22;42950;52.134;5.578;2023-03-07T17:42:48;3.30;99.90
23721;DHT22;42950;52.134;5.578;2023-03-07T17:45:15;3.10;99.90
23721;DHT22;42950;52.134;5.578;2023-03-07T17:47:40;2.80;99.90
23721;DHT22;42950;52.134;5.578;2023-03-07T17:50:07;2.60;99.90
23721;DHT22;42950;52.134;5.578;2023-03-07T17:52:33;2.30;99.90
23721;DHT22;42950;52.134;5.578;2023-03-07T17:54:59;2.20;99.90
23721;DHT22;42950;52.134;5.578;2023-03-07T17:57:26;2.00;99.90
23721;DHT22;42950;52.134;5.578;2023-03-07T17:59:53;2.00;99.90
23721;DHT22;42950;52.134;5.578;2023-03-07T18:02:19;2.00;99.90
23721;DHT22;42950;52.134;5.578;2023-03-07T18:04:44;2.10;99.90
23721;DHT22;42950;52.134;5.578;2023-03-07T18:07:10;2.20;99.90
23721;DHT22;42950;52.134;5.578;2023-03-07T18:09:36;2.10;99.90
23721;DHT22;42950;52.134;5.578;2023-03-07T18:12:01;2.10;99.90
23721;DHT22;42950;52.134;5.578;2023-03-07T18:14:28;2.10;99.90
23721;DHT22;42950;52.134;5.578;2023-03-07T18:16:54;2.00;99.90
23721;DHT22;42950;52.134;5.578;2023-03-07T18:19:20;2.00;99.90
23721;DHT22;42950;52.134;5.578;2023-03-07T18:21:45;2.00;99.90
23721;DHT22;42950;52.134;5.578;2023-03-07T18:24:25;2.10;99.90